sensor_id;sensor_type;location;lat;lon;timestamp;pressure;altitude;pressure_sealevel;temperature;humidity
53089;BME280;38968;47.696;17.540;2022-12-18T00:02:49;10187800.0;;;1.05;60.98145
53089;BME280;38968;47.696;17.540;2022-12-18T00:07:49;10186580.0;;;0.7;62.13965
53089;BME280;38968;47.696;17.540;2022-12-18T00:12:49;10186990.0;;;0.5;63.07227
53089;BME280;38968;47.696;17.540;2022-12-18T00:17:49;10188000.0;;;0.31;64.04883
53089;BME280;38968;47.696;17.540;2022-12-18T00:22:49;10188270.0;;;0.49;63.81934
53089;BME280;38968;47.696;17.540;2022-12-18T00:27:49;10188420.0;;;1.09;62.28613
53089;BME280;38968;47.696;17.540;2022-12-18T00:32:49;10189040.0;;;1.45;60.79004
53089;BME280;38968;47.696;17.540;2022-12-18T00:37:49;10189400.0;;;0.98;61.49805
53089;BME280;38968;47.696;17.540;2022-12-18T00:42:49;10191260.0;;;0.78;62.53027
53089;BME280;38968;47.696;17.540;2022-12-18T00:47:49;10191210.0;;;0.85;62.67578
53089;BME280;38968;47.696;17.540;2022-12-18T00:52:49;10191340.0;;;0.77;62.75293
53089;BME280;38968;47.696;17.540;2022-12-18T00:57:50;10192490.0;;;1.47;60.90625
53089;BME280;38968;47.696;17.540;2022-12-18T01:02:49;10192140.0;;;1.79;59.9541
53089;BME280;38968;47.696;17.540;2022-12-18T01:07:49;10192560.0;;;1.61;59.21973
53089;BME280;38968;47.696;17.540;2022-12-18T01:12:49;10193630.0;;;1.7;59.52539
53089;BME280;38968;47.696;17.540;2022-12-18T01:17:51;10194040.0;;;1.81;59.48535
53089;BME280;38968;47.696;17.540;2022-12-18T01:22:49;10195070.0;;;1.81;59.08105
53089;BME280;38968;47.696;17.540;2022-12-18T01:27:49;10195150.0;;;1.97;58.8418
53089;BME280;38968;47.696;17.540;2022-12-18T01:32:49;10194560.0;;;1.99;58.45215
53089;BME280;38968;47.696;17.540;2022-12-18T01:37:49;10194880.0;;;2.11;57.84082
53089;BME280;38968;47.696;17.540;2022-12-18T01:42:54;10195530.0;;;1.54;58.78516
53089;BME280;38968;47.696;17.540;2022-12-18T01:48:00;10196170.0;;;1.79;58.4707
53089;BME280;38968;47.696;17.540;2022-12-18T01:57:51;10196360.0;;;1.65;57.86719
53089;BME280;38968;47.696;17.540;2022-12-18T02:02:50;10197130.0;;;1.65;58.54102
53089;BME280;38968;47.696;17.540;2022-12-18T02:12:54;10197640.0;;;1.8;57.94434
53089;BME280;38968;47.696;17.540;2022-12-18T02:17:52;10198530.0;;;1.85;57.40039
53089;BME280;38968;47.696;17.540;2022-12-18T02:27:50;10199990.0;;;1.21;58.71582
53089;BME280;38968;47.696;17.540;2022-12-18T02:32:50;10199920.0;;;1.4;58.23633
53089;BME280;38968;47.696;17.540;2022-12-18T02:37:49;10200600.0;;;1.39;57.76563
53089;BME280;38968;47.696;17.540;2022-12-18T02:42:49;10202040.0;;;0.88;58.80566
53089;BME280;38968;47.696;17.540;2022-12-18T02:47:49;10201570.0;;;1.12;58.79395
53089;BME280;38968;47.696;17.540;2022-12-18T02:53:01;10202860.0;;;1.27;58.41016
53089;BME280;38968;47.696;17.540;2022-12-18T02:57:56;10203830.0;;;1.16;58.11523
53089;BME280;38968;47.696;17.540;2022-12-18T03:13:03;10206310.0;;;0.83;58.26074
53089;BME280;38968;47.696;17.540;2022-12-18T03:18:12;10205600.0;;;1.1;58.8584
53089;BME280;38968;47.696;17.540;2022-12-18T03:22:51;10205230.0;;;1.21;58.57031
53089;BME280;38968;47.696;17.540;2022-12-18T03:27:51;10205290.0;;;1.16;57.82324
53089;BME280;38968;47.696;17.540;2022-12-18T03:33:02;10206280.0;;;0.93;58.73438
53089;BME280;38968;47.696;17.540;2022-12-18T03:37:49;10206270.0;;;0.77;59.21582
53089;BME280;38968;47.696;17.540;2022-12-18T03:42:51;10208010.0;;;0.81;58.45996
53089;BME280;38968;47.696;17.540;2022-12-18T03:48:06;10208960.0;;;0.52;59.94336
53089;BME280;38968;47.696;17.540;2022-12-18T03:52:54;10207310.0;;;0.78;59.6543
53089;BME280;38968;47.696;17.540;2022-12-18T03:57:50;10208270.0;;;0.51;59.22559
53089;BME280;38968;47.696;17.540;2022-12-18T04:02:52;10208650.0;;;0.43;60.03027
53089;BME280;38968;47.696;17.540;2022-12-18T04:07:50;10209310.0;;;0.68;59.52832
53089;BME280;38968;47.696;17.540;2022-12-18T04:12:49;10210790.0;;;0.28;58.83496
53089;BME280;38968;47.696;17.540;2022-12-18T04:17:51;10211260.0;;;0.07;60.20117
53089;BME280;38968;47.696;17.540;2022-12-18T04:22:49;10210860.0;;;0.1;59.55957
53089;BME280;38968;47.696;17.540;2022-12-18T04:27:49;10212440.0;;;-0.38;59.84863
53089;BME280;38968;47.696;17.540;2022-12-18T04:32:49;10211750.0;;;-0.26;60.93848
53089;BME280;38968;47.696;17.540;2022-12-18T04:37:49;10212600.0;;;-0.4;60.16992
53089;BME280;38968;47.696;17.540;2022-12-18T04:42:49;10213490.0;;;-0.35;61.21582
53089;BME280;38968;47.696;17.540;2022-12-18T04:47:49;10212730.0;;;0.08;60.33789
53089;BME280;38968;47.696;17.540;2022-12-18T04:52:49;10212960.0;;;0.05;59.2041
53089;BME280;38968;47.696;17.540;2022-12-18T04:57:49;10214180.0;;;-0.21;59.61621
53089;BME280;38968;47.696;17.540;2022-12-18T05:02:49;10214820.0;;;-0.14;59.65918
53089;BME280;38968;47.696;17.540;2022-12-18T05:07:49;10214240.0;;;0.03;60.3877
53089;BME280;38968;47.696;17.540;2022-12-18T05:12:49;10215090.0;;;0.17;60.22949
53089;BME280;38968;47.696;17.540;2022-12-18T05:17:49;10215560.0;;;0.22;59.87891
53089;BME280;38968;47.696;17.540;2022-12-18T05:22:50;10215180.0;;;0.31;59.41992
53089;BME280;38968;47.696;17.540;2022-12-18T05:27:49;10215920.0;;;0.39;58.43457
53089;BME280;38968;47.696;17.540;2022-12-18T05:32:49;10216990.0;;;0.47;58.02051
53089;BME280;38968;47.696;17.540;2022-12-18T05:37:49;10217330.0;;;0.31;58.08789
53089;BME280;38968;47.696;17.540;2022-12-18T05:42:49;10217940.0;;;0.05;59.27246
53089;BME280;38968;47.696;17.540;2022-12-18T05:47:50;10219410.0;;;0.08;59.44434
53089;BME280;38968;47.696;17.540;2022-12-18T05:52:49;10218830.0;;;0.1;59
53089;BME280;38968;47.696;17.540;2022-12-18T05:57:49;10218960.0;;;-0.51;59.51855
53089;BME280;38968;47.696;17.540;2022-12-18T06:02:50;10219370.0;;;-0.13;60.15332
53089;BME280;38968;47.696;17.540;2022-12-18T06:07:49;10220150.0;;;0.03;59.37012
53089;BME280;38968;47.696;17.540;2022-12-18T06:12:49;10219920.0;;;0.06;59.15039
53089;BME280;38968;47.696;17.540;2022-12-18T06:17:49;10221410.0;;;-0.16;58.77344
53089;BME280;38968;47.696;17.540;2022-12-18T06:22:49;10221150.0;;;-0.69;58.99023
53089;BME280;38968;47.696;17.540;2022-12-18T06:27:49;10220640.0;;;-0.69;59.68262
53089;BME280;38968;47.696;17.540;2022-12-18T06:32:50;10222020.0;;;-0.81;60.02344
53089;BME280;38968;47.696;17.540;2022-12-18T06:37:49;10222870.0;;;-0.42;59.43066
53089;BME280;38968;47.696;17.540;2022-12-18T06:42:49;10223450.0;;;-0.31;58.5625
53089;BME280;38968;47.696;17.540;2022-12-18T06:47:49;10224100.0;;;-0.36;58.29883
53089;BME280;38968;47.696;17.540;2022-12-18T06:52:49;10224790.0;;;-0.48;59.1875
53089;BME280;38968;47.696;17.540;2022-12-18T06:57:49;10225590.0;;;-0.84;59.77441
53089;BME280;38968;47.696;17.540;2022-12-18T07:02:49;10227170.0;;;-0.77;59.6377
53089;BME280;38968;47.696;17.540;2022-12-18T07:07:49;10228430.0;;;-0.82;59.9209
53089;BME280;38968;47.696;17.540;2022-12-18T07:12:49;10229210.0;;;-0.54;59.32422
53089;BME280;38968;47.696;17.540;2022-12-18T07:17:49;10229650.0;;;-0.53;58.81152
53089;BME280;38968;47.696;17.540;2022-12-18T07:22:49;10232020.0;;;-0.44;59.46191
53089;BME280;38968;47.696;17.540;2022-12-18T07:27:49;10233220.0;;;-0.44;59.68359
53089;BME280;38968;47.696;17.540;2022-12-18T07:32:49;10233790.0;;;-0.6;59.7168
53089;BME280;38968;47.696;17.540;2022-12-18T07:37:49;10235090.0;;;-0.59;60.96973
53089;BME280;38968;47.696;17.540;2022-12-18T07:42:49;10236010.0;;;-0.11;60.33398
53089;BME280;38968;47.696;17.540;2022-12-18T07:47:49;10235370.0;;;-0.17;60.50391
53089;BME280;38968;47.696;17.540;2022-12-18T07:52:49;10236010.0;;;0.16;60.15918
53089;BME280;38968;47.696;17.540;2022-12-18T07:57:49;10235850.0;;;0.18;59.22266
53089;BME280;38968;47.696;17.540;2022-12-18T08:02:49;10236980.0;;;0.35;60.28613
53089;BME280;38968;47.696;17.540;2022-12-18T08:07:51;10237510.0;;;0.63;60.16992
53089;BME280;38968;47.696;17.540;2022-12-18T08:12:50;10237690.0;;;1.06;59.46973
53089;BME280;38968;47.696;17.540;2022-12-18T08:17:49;10236550.0;;;1.03;59.0166
53089;BME280;38968;47.696;17.540;2022-12-18T08:22:49;10236270.0;;;1.28;59.05078
53089;BME280;38968;47.696;17.540;2022-12-18T08:27:49;10237510.0;;;1.63;58.19043
53089;BME280;38968;47.696;17.540;2022-12-18T08:32:53;10236900.0;;;1.61;57.28906
53089;BME280;38968;47.696;17.540;2022-12-18T08:37:50;10236660.0;;;2.1;57.5791
53089;BME280;38968;47.696;17.540;2022-12-18T08:42:49;10237810.0;;;1.85;58.26563
53089;BME280;38968;47.696;17.540;2022-12-18T08:47:49;10237320.0;;;2.05;57.10059
53089;BME280;38968;47.696;17.540;2022-12-18T08:52:49;10237790.0;;;2.43;57.06152
53089;BME280;38968;47.696;17.540;2022-12-18T08:57:50;10238550.0;;;2.55;57.11133
53089;BME280;38968;47.696;17.540;2022-12-18T09:02:49;10238250.0;;;2.16;57.34082
53089;BME280;38968;47.696;17.540;2022-12-18T09:07:50;10238310.0;;;2.74;58.16211
53089;BME280;38968;47.696;17.540;2022-12-18T09:12:49;10238600.0;;;3.13;54.79785
53089;BME280;38968;47.696;17.540;2022-12-18T09:17:49;10238830.0;;;3.25;55.00488
53089;BME280;38968;47.696;17.540;2022-12-18T09:22:50;10238340.0;;;3.29;55.58594
53089;BME280;38968;47.696;17.540;2022-12-18T09:27:49;10237090.0;;;3.87;54.52051
53089;BME280;38968;47.696;17.540;2022-12-18T09:32:49;10237930.0;;;3.33;54.98242
53089;BME280;38968;47.696;17.540;2022-12-18T09:37:49;10238020.0;;;4.01;53.39746
53089;BME280;38968;47.696;17.540;2022-12-18T09:42:55;10238630.0;;;3.86;53.88574
53089;BME280;38968;47.696;17.540;2022-12-18T09:47:51;10237810.0;;;3.94;53.5127
53089;BME280;38968;47.696;17.540;2022-12-18T09:52:51;10238300.0;;;4.24;51.4668
53089;BME280;38968;47.696;17.540;2022-12-18T09:57:54;10238480.0;;;4.8;51.63672
53089;BME280;38968;47.696;17.540;2022-12-18T10:02:51;10238410.0;;;5.23;50.40625
53089;BME280;38968;47.696;17.540;2022-12-18T10:08:17;10239290.0;;;4.7;49.86719
53089;BME280;38968;47.696;17.540;2022-12-18T10:12:56;10238360.0;;;4.55;50.27051
53089;BME280;38968;47.696;17.540;2022-12-18T10:17:54;10238580.0;;;4.64;50.28027
53089;BME280;38968;47.696;17.540;2022-12-18T10:22:57;10239250.0;;;4.43;51.13867
53089;BME280;38968;47.696;17.540;2022-12-18T10:27:55;10238490.0;;;4.81;50.87891
53089;BME280;38968;47.696;17.540;2022-12-18T10:32:49;10237270.0;;;4.61;51.44434
53089;BME280;38968;47.696;17.540;2022-12-18T10:43:02;10237630.0;;;4.27;52.00391
53089;BME280;38968;47.696;17.540;2022-12-18T10:47:49;10237120.0;;;4.86;50.91797
53089;BME280;38968;47.696;17.540;2022-12-18T10:52:57;10236310.0;;;4.79;51.44336
53089;BME280;38968;47.696;17.540;2022-12-18T10:57:49;10236120.0;;;5.32;50.46191
53089;BME280;38968;47.696;17.540;2022-12-18T11:02:50;10234280.0;;;5.68;50.19629
53089;BME280;38968;47.696;17.540;2022-12-18T11:07:50;10232730.0;;;7.77;44.69336
53089;BME280;38968;47.696;17.540;2022-12-18T11:12:49;10232240.0;;;8.72;43.18652
53089;BME280;38968;47.696;17.540;2022-12-18T11:17:50;10232100.0;;;10.56;38.78516
53089;BME280;38968;47.696;17.540;2022-12-18T11:22:59;10230470.0;;;12.13;35.75293
53089;BME280;38968;47.696;17.540;2022-12-18T11:27:58;10230410.0;;;13.07;34.07617
53089;BME280;38968;47.696;17.540;2022-12-18T11:32:51;10230840.0;;;13.93;30.9541
53089;BME280;38968;47.696;17.540;2022-12-18T11:37:57;10230990.0;;;13.53;31.32129
53089;BME280;38968;47.696;17.540;2022-12-18T11:42:54;10231260.0;;;13.67;30.94629
53089;BME280;38968;47.696;17.540;2022-12-18T11:52:49;10230980.0;;;13.5;31.62207
53089;BME280;38968;47.696;17.540;2022-12-18T11:58:00;10229930.0;;;13.47;30.7002
53089;BME280;38968;47.696;17.540;2022-12-18T12:08:08;10230690.0;;;14.2;30.30859
53089;BME280;38968;47.696;17.540;2022-12-18T12:18:01;10230620.0;;;14.47;29.4873
53089;BME280;38968;47.696;17.540;2022-12-18T12:23:22;10231210.0;;;14.21;30.11133
53089;BME280;38968;47.696;17.540;2022-12-18T12:28:02;10231570.0;;;14.38;29.36523
53089;BME280;38968;47.696;17.540;2022-12-18T12:33:17;10231230.0;;;14.41;29.6123
53089;BME280;38968;47.696;17.540;2022-12-18T12:42:56;10230540.0;;;13.41;31.35938
53089;BME280;38968;47.696;17.540;2022-12-18T12:47:50;10229970.0;;;13.97;30.81738
53089;BME280;38968;47.696;17.540;2022-12-18T12:52:53;10228780.0;;;14.57;30.18262
53089;BME280;38968;47.696;17.540;2022-12-18T12:58:05;10228860.0;;;14.46;29.7666
53089;BME280;38968;47.696;17.540;2022-12-18T13:08:11;10228750.0;;;13.06;31.97363
53089;BME280;38968;47.696;17.540;2022-12-18T13:18:05;10231900.0;;;13.13;31.19922
53089;BME280;38968;47.696;17.540;2022-12-18T13:22:49;10230580.0;;;12.99;32.02637
53089;BME280;38968;47.696;17.540;2022-12-18T13:33:00;10230720.0;;;13.54;30.55469
53089;BME280;38968;47.696;17.540;2022-12-18T13:37:53;10231270.0;;;12.94;31.2207
53089;BME280;38968;47.696;17.540;2022-12-18T13:42:49;10232580.0;;;11.71;32.90527
53089;BME280;38968;47.696;17.540;2022-12-18T13:47:49;10233030.0;;;11.8;33.52539
53089;BME280;38968;47.696;17.540;2022-12-18T13:52:50;10233250.0;;;11.07;35.15625
53089;BME280;38968;47.696;17.540;2022-12-18T13:57:49;10234490.0;;;10.72;35.25586
53089;BME280;38968;47.696;17.540;2022-12-18T14:02:50;10235290.0;;;10.38;35.99023
53089;BME280;38968;47.696;17.540;2022-12-18T14:07:49;10235350.0;;;10.66;35.49316
53089;BME280;38968;47.696;17.540;2022-12-18T14:12:50;10235660.0;;;10.5;35.43359
53089;BME280;38968;47.696;17.540;2022-12-18T14:17:50;10236380.0;;;9.84;36.55566
53089;BME280;38968;47.696;17.540;2022-12-18T14:22:49;10236050.0;;;9.6;37.26074
53089;BME280;38968;47.696;17.540;2022-12-18T14:37:49;10237950.0;;;8.07;39.88086
53089;BME280;38968;47.696;17.540;2022-12-18T14:42:49;10238200.0;;;7.79;40.8623
53089;BME280;38968;47.696;17.540;2022-12-18T14:47:49;10238080.0;;;7.19;42.01758
53089;BME280;38968;47.696;17.540;2022-12-18T14:52:49;10239820.0;;;6.76;43.32227
53089;BME280;38968;47.696;17.540;2022-12-18T14:57:53;10240430.0;;;5.7;45.81152
53089;BME280;38968;47.696;17.540;2022-12-18T15:02:54;10240860.0;;;5.29;47.33594
53089;BME280;38968;47.696;17.540;2022-12-18T15:07:51;10240980.0;;;4.97;48.28711
53089;BME280;38968;47.696;17.540;2022-12-18T15:17:56;10242480.0;;;4.67;49.31934
53089;BME280;38968;47.696;17.540;2022-12-18T15:22:49;10243760.0;;;4.46;49.91992
53089;BME280;38968;47.696;17.540;2022-12-18T15:27:50;10243440.0;;;4.34;50.58594
53089;BME280;38968;47.696;17.540;2022-12-18T15:32:55;10242840.0;;;4.17;50.68945
53089;BME280;38968;47.696;17.540;2022-12-18T15:37:50;10241900.0;;;4.01;51.76953
53089;BME280;38968;47.696;17.540;2022-12-18T15:42:51;10241800.0;;;3.99;51.5625
53089;BME280;38968;47.696;17.540;2022-12-18T15:47:50;10243480.0;;;3.9;51.66406
53089;BME280;38968;47.696;17.540;2022-12-18T15:52:51;10244500.0;;;3.54;53.25977
53089;BME280;38968;47.696;17.540;2022-12-18T15:57:50;10245580.0;;;3.62;52.58984
53089;BME280;38968;47.696;17.540;2022-12-18T16:02:50;10245640.0;;;3.56;53.04688
53089;BME280;38968;47.696;17.540;2022-12-18T16:07:51;10247080.0;;;3.36;53.82422
53089;BME280;38968;47.696;17.540;2022-12-18T16:12:49;10247380.0;;;3.11;54.58203
53089;BME280;38968;47.696;17.540;2022-12-18T16:17:49;10245270.0;;;3.18;54.66992
53089;BME280;38968;47.696;17.540;2022-12-18T16:22:50;10245860.0;;;3.16;54.58789
53089;BME280;38968;47.696;17.540;2022-12-18T16:27:50;10246320.0;;;3.07;54.9834
53089;BME280;38968;47.696;17.540;2022-12-18T16:32:50;10246500.0;;;3.08;54.96094
53089;BME280;38968;47.696;17.540;2022-12-18T16:37:50;10247210.0;;;3.1;54.87402
53089;BME280;38968;47.696;17.540;2022-12-18T16:42:50;10247370.0;;;2.93;54.96484
53089;BME280;38968;47.696;17.540;2022-12-18T16:47:50;10246500.0;;;2.91;54.48926
53089;BME280;38968;47.696;17.540;2022-12-18T16:52:49;10247850.0;;;2.41;55.73242
53089;BME280;38968;47.696;17.540;2022-12-18T16:57:49;10248720.0;;;2.42;55.59766
53089;BME280;38968;47.696;17.540;2022-12-18T17:02:50;10248670.0;;;2.33;56.29492
53089;BME280;38968;47.696;17.540;2022-12-18T17:07:49;10250210.0;;;2.62;55.87109
53089;BME280;38968;47.696;17.540;2022-12-18T17:12:50;10248440.0;;;2.54;56.15234
53089;BME280;38968;47.696;17.540;2022-12-18T17:17:49;10248700.0;;;2.54;56.28809
53089;BME280;38968;47.696;17.540;2022-12-18T17:22:50;10248890.0;;;2.58;56.08008
53089;BME280;38968;47.696;17.540;2022-12-18T17:27:50;10249200.0;;;2.51;55.96777
53089;BME280;38968;47.696;17.540;2022-12-18T17:32:50;10247860.0;;;2.43;56.17285
53089;BME280;38968;47.696;17.540;2022-12-18T17:37:49;10247150.0;;;2.39;55.80762
53089;BME280;38968;47.696;17.540;2022-12-18T17:42:52;10248480.0;;;2.3;56.3252
53089;BME280;38968;47.696;17.540;2022-12-18T17:47:49;10249230.0;;;2.27;56.20801
53089;BME280;38968;47.696;17.540;2022-12-18T17:52:51;10248850.0;;;2.06;56.74219
53089;BME280;38968;47.696;17.540;2022-12-18T17:57:50;10248350.0;;;2.09;56.72461
53089;BME280;38968;47.696;17.540;2022-12-18T18:02:50;10248940.0;;;1.92;57.17285
53089;BME280;38968;47.696;17.540;2022-12-18T18:07:49;10248980.0;;;1.99;57.02539
53089;BME280;38968;47.696;17.540;2022-12-18T18:12:49;10249660.0;;;1.97;57.37109
53089;BME280;38968;47.696;17.540;2022-12-18T18:17:51;10249820.0;;;2.1;57.35449
53089;BME280;38968;47.696;17.540;2022-12-18T18:22:50;10249870.0;;;2.04;57.22363
53089;BME280;38968;47.696;17.540;2022-12-18T18:27:49;10249290.0;;;2.07;57.01367
53089;BME280;38968;47.696;17.540;2022-12-18T18:32:50;10249870.0;;;2.03;57.50293
53089;BME280;38968;47.696;17.540;2022-12-18T18:37:49;10249590.0;;;2;57.45313
53089;BME280;38968;47.696;17.540;2022-12-18T18:42:50;10248810.0;;;1.98;57.64355
53089;BME280;38968;47.696;17.540;2022-12-18T18:47:49;10250290.0;;;2.02;57.08594
53089;BME280;38968;47.696;17.540;2022-12-18T18:52:49;10250730.0;;;1.88;57.89844
53089;BME280;38968;47.696;17.540;2022-12-18T18:57:51;10250280.0;;;1.71;57.63965
53089;BME280;38968;47.696;17.540;2022-12-18T19:02:50;10249810.0;;;1.66;58.34082
53089;BME280;38968;47.696;17.540;2022-12-18T19:07:49;10250290.0;;;1.73;57.46289
53089;BME280;38968;47.696;17.540;2022-12-18T19:12:49;10251680.0;;;1.62;58.08691
53089;BME280;38968;47.696;17.540;2022-12-18T19:17:49;10253460.0;;;1.44;58.38867
53089;BME280;38968;47.696;17.540;2022-12-18T19:22:50;10254050.0;;;1.41;58.91211
53089;BME280;38968;47.696;17.540;2022-12-18T19:27:49;10254410.0;;;1.3;59.05371
53089;BME280;38968;47.696;17.540;2022-12-18T19:32:50;10254950.0;;;1.21;58.94043
53089;BME280;38968;47.696;17.540;2022-12-18T19:37:50;10254570.0;;;1.28;58.90527
53089;BME280;38968;47.696;17.540;2022-12-18T19:42:50;10254770.0;;;1.47;58.79785
53089;BME280;38968;47.696;17.540;2022-12-18T19:47:50;10254370.0;;;1.52;58.84863
53089;BME280;38968;47.696;17.540;2022-12-18T19:52:49;10254330.0;;;1.46;58.6377
53089;BME280;38968;47.696;17.540;2022-12-18T19:57:51;10255060.0;;;1.53;58.63672
53089;BME280;38968;47.696;17.540;2022-12-18T20:02:49;10254280.0;;;1.65;58.34863
53089;BME280;38968;47.696;17.540;2022-12-18T20:07:50;10254240.0;;;1.58;57.94824
53089;BME280;38968;47.696;17.540;2022-12-18T20:12:50;10254410.0;;;1.43;57.9502
53089;BME280;38968;47.696;17.540;2022-12-18T20:17:50;10255620.0;;;1.31;58.66211
53089;BME280;38968;47.696;17.540;2022-12-18T20:22:50;10255850.0;;;1.26;58.71191
53089;BME280;38968;47.696;17.540;2022-12-18T20:27:50;10255870.0;;;1.18;59.39551
53089;BME280;38968;47.696;17.540;2022-12-18T20:32:50;10255420.0;;;1.14;58.59375
53089;BME280;38968;47.696;17.540;2022-12-18T20:37:50;10257800.0;;;1.23;58.65137
53089;BME280;38968;47.696;17.540;2022-12-18T20:42:49;10257190.0;;;1.36;59.05078
53089;BME280;38968;47.696;17.540;2022-12-18T20:47:52;10257660.0;;;1.41;58.11621
53089;BME280;38968;47.696;17.540;2022-12-18T20:52:49;10257160.0;;;1.18;58.54297
53089;BME280;38968;47.696;17.540;2022-12-18T20:57:49;10255720.0;;;1.34;59.41895
53089;BME280;38968;47.696;17.540;2022-12-18T21:02:49;10255950.0;;;1.3;58.93066
53089;BME280;38968;47.696;17.540;2022-12-18T21:07:49;10256850.0;;;1.09;59.51758
53089;BME280;38968;47.696;17.540;2022-12-18T21:12:51;10255690.0;;;0.75;60.53613
53089;BME280;38968;47.696;17.540;2022-12-18T21:17:49;10254500.0;;;0.91;61.08301
53089;BME280;38968;47.696;17.540;2022-12-18T21:22:49;10254430.0;;;1.06;60.06445
53089;BME280;38968;47.696;17.540;2022-12-18T21:27:49;10254430.0;;;0.93;59.97852
53089;BME280;38968;47.696;17.540;2022-12-18T21:32:49;10253630.0;;;0.62;61.00879
53089;BME280;38968;47.696;17.540;2022-12-18T21:37:49;10253640.0;;;0.64;60.82031
53089;BME280;38968;47.696;17.540;2022-12-18T21:42:49;10253140.0;;;0.78;60.5166
53089;BME280;38968;47.696;17.540;2022-12-18T21:47:49;10253520.0;;;0.85;60.14453
53089;BME280;38968;47.696;17.540;2022-12-18T21:52:49;10253620.0;;;0.74;59.90625
53089;BME280;38968;47.696;17.540;2022-12-18T21:57:49;10251970.0;;;0.84;59.93066
53089;BME280;38968;47.696;17.540;2022-12-18T22:02:49;10254070.0;;;0.9;59.41309
53089;BME280;38968;47.696;17.540;2022-12-18T22:07:49;10254990.0;;;0.73;59.25488
53089;BME280;38968;47.696;17.540;2022-12-18T22:12:50;10254930.0;;;0.77;59.54004
53089;BME280;38968;47.696;17.540;2022-12-18T22:17:49;10255350.0;;;0.76;59.43945
53089;BME280;38968;47.696;17.540;2022-12-18T22:22:49;10255870.0;;;0.76;59.23828
53089;BME280;38968;47.696;17.540;2022-12-18T22:27:49;10255130.0;;;0.55;59.44238
53089;BME280;38968;47.696;17.540;2022-12-18T22:32:49;10255220.0;;;0.57;59.89258
53089;BME280;38968;47.696;17.540;2022-12-18T22:37:49;10256130.0;;;0.38;60.21387
53089;BME280;38968;47.696;17.540;2022-12-18T22:42:49;10255400.0;;;0.58;60.30859
53089;BME280;38968;47.696;17.540;2022-12-18T22:47:49;10255190.0;;;0.39;60.5166
53089;BME280;38968;47.696;17.540;2022-12-18T22:52:49;10255710.0;;;0.14;61.56543
53089;BME280;38968;47.696;17.540;2022-12-18T22:57:51;10255550.0;;;0.16;61.92578
53089;BME280;38968;47.696;17.540;2022-12-18T23:02:49;10254340.0;;;0.02;61.93848
53089;BME280;38968;47.696;17.540;2022-12-18T23:07:49;10253710.0;;;-0.04;62.38867
53089;BME280;38968;47.696;17.540;2022-12-18T23:12:49;10253250.0;;;0.06;62.46973
53089;BME280;38968;47.696;17.540;2022-12-18T23:17:49;10253370.0;;;0.09;62.19629
53089;BME280;38968;47.696;17.540;2022-12-18T23:22:49;10252860.0;;;0.11;62.41113
53089;BME280;38968;47.696;17.540;2022-12-18T23:27:49;10252870.0;;;0.12;62.38965
53089;BME280;38968;47.696;17.540;2022-12-18T23:32:49;10251680.0;;;0.13;62.20117
53089;BME280;38968;47.696;17.540;2022-12-18T23:37:49;10251890.0;;;0.32;61.77051
53089;BME280;38968;47.696;17.540;2022-12-18T23:42:49;10251400.0;;;0.23;61.86914
53089;BME280;38968;47.696;17.540;2022-12-18T23:47:49;10251270.0;;;0.3;61.56641
53089;BME280;38968;47.696;17.540;2022-12-18T23:52:49;10250580.0;;;0.02;62.08496
53089;BME280;38968;47.696;17.540;2022-12-18T23:57:49;10250850.0;;;0.05;62.64746
